sensor_id;sensor_type;location;lat;lon;timestamp;temperature;humidity
24162;DHT22;12318;51.262;7.066;2022-10-16T00:01:27;13.70;99.90
24162;DHT22;12318;51.262;7.066;2022-10-16T00:03:57;13.70;99.90
24162;DHT22;12318;51.262;7.066;2022-10-16T00:06:23;13.70;99.90
24162;DHT22;12318;51.262;7.066;2022-10-16T00:08:52;13.80;99.90
24162;DHT22;12318;51.262;7.066;2022-10-16T00:11:19;13.80;99.90
24162;DHT22;12318;51.262;7.066;2022-10-16T00:13:46;13.80;99.90
24162;DHT22;12318;51.262;7.066;2022-10-16T00:16:12;13.80;99.90
24162;DHT22;12318;51.262;7.066;2022-10-16T00:18:39;13.80;99.90
24162;DHT22;12318;51.262;7.066;2022-10-16T00:21:09;13.80;99.90
24162;DHT22;12318;51.262;7.066;2022-10-16T00:23:35;13.80;99.90
24162;DHT22;12318;51.262;7.066;2022-10-16T00:26:04;13.80;99.90
24162;DHT22;12318;51.262;7.066;2022-10-16T00:28:30;13.80;99.90
24162;DHT22;12318;51.262;7.066;2022-10-16T00:30:56;13.80;99.90
24162;DHT22;12318;51.262;7.066;2022-10-16T00:33:25;13.80;99.90
24162;DHT22;12318;51.262;7.066;2022-10-16T00:35:51;13.70;99.90
24162;DHT22;12318;51.262;7.066;2022-10-16T00:38:16;13.70;99.90
24162;DHT22;12318;51.262;7.066;2022-10-16T00:40:45;13.80;99.90
24162;DHT22;12318;51.262;7.066;2022-10-16T00:45:58;13.80;99.90
24162;DHT22;12318;51.262;7.066;2022-10-16T00:48:24;13.80;99.90
24162;DHT22;12318;51.262;7.066;2022-10-16T00:50:52;13.80;99.90
24162;DHT22;12318;51.262;7.066;2022-10-16T00:53:18;13.80;99.90
24162;DHT22;12318;51.262;7.066;2022-10-16T00:55:47;13.70;99.90
24162;DHT22;12318;51.262;7.066;2022-10-16T00:58:12;13.70;99.90
24162;DHT22;12318;51.262;7.066;2022-10-16T01:00:38;13.70;99.90
24162;DHT22;12318;51.262;7.066;2022-10-16T01:03:21;13.80;99.90
24162;DHT22;12318;51.262;7.066;2022-10-16T01:05:49;13.70;99.90
24162;DHT22;12318;51.262;7.066;2022-10-16T01:08:18;13.70;99.90
24162;DHT22;12318;51.262;7.066;2022-10-16T01:10:57;13.70;99.90
24162;DHT22;12318;51.262;7.066;2022-10-16T01:13:32;13.60;99.90
24162;DHT22;12318;51.262;7.066;2022-10-16T01:18:37;13.60;99.90
24162;DHT22;12318;51.262;7.066;2022-10-16T01:24:03;13.60;99.90
24162;DHT22;12318;51.262;7.066;2022-10-16T01:29:26;13.50;99.90
24162;DHT22;12318;51.262;7.066;2022-10-16T01:31:59;13.50;99.90
24162;DHT22;12318;51.262;7.066;2022-10-16T01:34:28;13.50;99.90
24162;DHT22;12318;51.262;7.066;2022-10-16T01:37:00;13.50;99.90
24162;DHT22;12318;51.262;7.066;2022-10-16T01:39:31;13.50;99.90
24162;DHT22;12318;51.262;7.066;2022-10-16T01:42:04;13.40;99.90
24162;DHT22;12318;51.262;7.066;2022-10-16T01:44:34;13.40;99.90
24162;DHT22;12318;51.262;7.066;2022-10-16T01:47:02;13.40;99.90
24162;DHT22;12318;51.262;7.066;2022-10-16T01:49:30;13.40;99.90
24162;DHT22;12318;51.262;7.066;2022-10-16T01:51:58;13.40;99.90
24162;DHT22;12318;51.262;7.066;2022-10-16T01:54:27;13.50;99.90
24162;DHT22;12318;51.262;7.066;2022-10-16T01:56:57;13.50;99.90
24162;DHT22;12318;51.262;7.066;2022-10-16T01:59:24;13.50;99.90
24162;DHT22;12318;51.262;7.066;2022-10-16T02:01:52;13.60;99.90
24162;DHT22;12318;51.262;7.066;2022-10-16T02:04:42;13.60;99.90
24162;DHT22;12318;51.262;7.066;2022-10-16T02:07:05;13.60;99.90
24162;DHT22;12318;51.262;7.066;2022-10-16T02:09:39;13.60;99.90
24162;DHT22;12318;51.262;7.066;2022-10-16T02:15:00;13.60;99.90
24162;DHT22;12318;51.262;7.066;2022-10-16T02:17:26;13.60;99.90
24162;DHT22;12318;51.262;7.066;2022-10-16T02:19:54;13.60;99.90
24162;DHT22;12318;51.262;7.066;2022-10-16T02:24:54;13.60;99.90
24162;DHT22;12318;51.262;7.066;2022-10-16T02:29:47;13.60;99.90
24162;DHT22;12318;51.262;7.066;2022-10-16T02:32:19;13.60;99.90
24162;DHT22;12318;51.262;7.066;2022-10-16T02:34:46;13.60;99.90
24162;DHT22;12318;51.262;7.066;2022-10-16T02:37:24;13.60;99.90
24162;DHT22;12318;51.262;7.066;2022-10-16T02:39:50;13.60;99.90
24162;DHT22;12318;51.262;7.066;2022-10-16T02:42:19;13.60;99.90
24162;DHT22;12318;51.262;7.066;2022-10-16T02:44:44;13.70;99.90
24162;DHT22;12318;51.262;7.066;2022-10-16T02:47:10;13.70;99.90
24162;DHT22;12318;51.262;7.066;2022-10-16T02:49:36;13.70;99.90
24162;DHT22;12318;51.262;7.066;2022-10-16T02:52:04;13.70;99.90
24162;DHT22;12318;51.262;7.066;2022-10-16T02:54:29;13.70;99.90
24162;DHT22;12318;51.262;7.066;2022-10-16T02:56:58;13.70;99.90
24162;DHT22;12318;51.262;7.066;2022-10-16T02:59:23;13.70;99.90
24162;DHT22;12318;51.262;7.066;2022-10-16T03:01:49;13.70;99.90
24162;DHT22;12318;51.262;7.066;2022-10-16T03:04:14;13.70;99.90
24162;DHT22;12318;51.262;7.066;2022-10-16T03:06:43;13.70;99.90
24162;DHT22;12318;51.262;7.066;2022-10-16T03:09:08;13.70;99.90
24162;DHT22;12318;51.262;7.066;2022-10-16T03:11:34;13.70;99.90
24162;DHT22;12318;51.262;7.066;2022-10-16T03:14:03;13.70;99.90
24162;DHT22;12318;51.262;7.066;2022-10-16T03:16:29;13.70;99.90
24162;DHT22;12318;51.262;7.066;2022-10-16T03:18:54;13.60;99.90
24162;DHT22;12318;51.262;7.066;2022-10-16T03:21:23;13.60;99.90
24162;DHT22;12318;51.262;7.066;2022-10-16T03:23:48;13.60;99.90
24162;DHT22;12318;51.262;7.066;2022-10-16T03:26:20;13.60;99.90
24162;DHT22;12318;51.262;7.066;2022-10-16T03:28:46;13.60;99.90
24162;DHT22;12318;51.262;7.066;2022-10-16T03:31:11;13.70;99.90
24162;DHT22;12318;51.262;7.066;2022-10-16T03:33:40;13.60;99.90
24162;DHT22;12318;51.262;7.066;2022-10-16T03:36:05;13.60;99.90
24162;DHT22;12318;51.262;7.066;2022-10-16T03:38:33;13.70;99.90
24162;DHT22;12318;51.262;7.066;2022-10-16T03:41:01;13.70;99.90
24162;DHT22;12318;51.262;7.066;2022-10-16T03:43:27;13.60;99.90
24162;DHT22;12318;51.262;7.066;2022-10-16T03:45:52;13.60;99.90
24162;DHT22;12318;51.262;7.066;2022-10-16T03:48:21;13.60;99.90
24162;DHT22;12318;51.262;7.066;2022-10-16T03:50:47;13.60;99.90
24162;DHT22;12318;51.262;7.066;2022-10-16T03:53:16;13.50;99.90
24162;DHT22;12318;51.262;7.066;2022-10-16T03:55:42;13.50;99.90
24162;DHT22;12318;51.262;7.066;2022-10-16T03:58:08;13.50;99.90
24162;DHT22;12318;51.262;7.066;2022-10-16T04:00:51;13.50;99.90
24162;DHT22;12318;51.262;7.066;2022-10-16T04:03:17;13.50;99.90
24162;DHT22;12318;51.262;7.066;2022-10-16T04:05:44;13.40;99.90
24162;DHT22;12318;51.262;7.066;2022-10-16T04:08:13;13.40;99.90
24162;DHT22;12318;51.262;7.066;2022-10-16T04:10:38;13.30;99.90
24162;DHT22;12318;51.262;7.066;2022-10-16T04:13:04;13.30;99.90
24162;DHT22;12318;51.262;7.066;2022-10-16T04:15:32;13.30;99.90
24162;DHT22;12318;51.262;7.066;2022-10-16T04:17:58;13.30;99.90
24162;DHT22;12318;51.262;7.066;2022-10-16T04:20:24;13.30;99.90
24162;DHT22;12318;51.262;7.066;2022-10-16T04:22:49;13.30;99.90
24162;DHT22;12318;51.262;7.066;2022-10-16T04:25:18;13.30;99.90
24162;DHT22;12318;51.262;7.066;2022-10-16T04:27:43;13.20;99.90
24162;DHT22;12318;51.262;7.066;2022-10-16T04:30:09;13.20;99.90
24162;DHT22;12318;51.262;7.066;2022-10-16T04:32:35;13.20;99.90
24162;DHT22;12318;51.262;7.066;2022-10-16T04:35:00;13.30;99.90
24162;DHT22;12318;51.262;7.066;2022-10-16T04:37:26;13.20;99.90
24162;DHT22;12318;51.262;7.066;2022-10-16T04:39:53;13.20;99.90
24162;DHT22;12318;51.262;7.066;2022-10-16T04:42:19;13.30;99.90
24162;DHT22;12318;51.262;7.066;2022-10-16T04:44:44;13.20;99.90
24162;DHT22;12318;51.262;7.066;2022-10-16T04:47:10;13.20;99.90
24162;DHT22;12318;51.262;7.066;2022-10-16T04:49:36;13.10;99.90
24162;DHT22;12318;51.262;7.066;2022-10-16T04:52:02;13.10;99.90
24162;DHT22;12318;51.262;7.066;2022-10-16T04:54:28;13.20;99.90
24162;DHT22;12318;51.262;7.066;2022-10-16T04:56:53;13.10;99.90
24162;DHT22;12318;51.262;7.066;2022-10-16T04:59:19;13.10;99.90
24162;DHT22;12318;51.262;7.066;2022-10-16T05:01:45;13.10;99.90
24162;DHT22;12318;51.262;7.066;2022-10-16T05:04:11;13.10;99.90
24162;DHT22;12318;51.262;7.066;2022-10-16T05:06:40;13.10;99.90
24162;DHT22;12318;51.262;7.066;2022-10-16T05:09:07;13.10;99.90
24162;DHT22;12318;51.262;7.066;2022-10-16T05:11:33;13.10;99.90
24162;DHT22;12318;51.262;7.066;2022-10-16T05:13:58;13.10;99.90
24162;DHT22;12318;51.262;7.066;2022-10-16T05:16:24;13.10;99.90
24162;DHT22;12318;51.262;7.066;2022-10-16T05:18:51;13.10;99.90
24162;DHT22;12318;51.262;7.066;2022-10-16T05:21:16;13.10;99.90
24162;DHT22;12318;51.262;7.066;2022-10-16T05:23:42;13.10;99.90
24162;DHT22;12318;51.262;7.066;2022-10-16T05:26:07;13.00;99.90
24162;DHT22;12318;51.262;7.066;2022-10-16T05:28:33;13.10;99.90
24162;DHT22;12318;51.262;7.066;2022-10-16T05:30:59;13.10;99.90
24162;DHT22;12318;51.262;7.066;2022-10-16T05:33:25;13.00;99.90
24162;DHT22;12318;51.262;7.066;2022-10-16T05:35:51;13.10;99.90
24162;DHT22;12318;51.262;7.066;2022-10-16T05:38:17;13.00;99.90
24162;DHT22;12318;51.262;7.066;2022-10-16T05:40:43;13.00;99.90
24162;DHT22;12318;51.262;7.066;2022-10-16T05:43:09;13.10;99.90
24162;DHT22;12318;51.262;7.066;2022-10-16T05:45:34;13.10;99.90
24162;DHT22;12318;51.262;7.066;2022-10-16T05:48:00;13.00;99.90
24162;DHT22;12318;51.262;7.066;2022-10-16T05:50:26;13.10;99.90
24162;DHT22;12318;51.262;7.066;2022-10-16T05:52:52;13.10;99.90
24162;DHT22;12318;51.262;7.066;2022-10-16T05:55:18;13.10;99.90
24162;DHT22;12318;51.262;7.066;2022-10-16T05:57:43;13.10;99.90
24162;DHT22;12318;51.262;7.066;2022-10-16T06:00:09;13.00;99.90
24162;DHT22;12318;51.262;7.066;2022-10-16T06:02:35;13.10;99.90
24162;DHT22;12318;51.262;7.066;2022-10-16T06:05:00;13.10;99.90
24162;DHT22;12318;51.262;7.066;2022-10-16T06:07:26;13.00;99.90
24162;DHT22;12318;51.262;7.066;2022-10-16T06:09:52;13.10;99.90
24162;DHT22;12318;51.262;7.066;2022-10-16T06:12:18;13.10;99.90
24162;DHT22;12318;51.262;7.066;2022-10-16T06:14:44;13.10;99.90
24162;DHT22;12318;51.262;7.066;2022-10-16T06:17:09;13.10;99.90
24162;DHT22;12318;51.262;7.066;2022-10-16T06:19:35;13.10;99.90
24162;DHT22;12318;51.262;7.066;2022-10-16T06:22:01;13.20;99.90
24162;DHT22;12318;51.262;7.066;2022-10-16T06:24:27;13.20;99.90
24162;DHT22;12318;51.262;7.066;2022-10-16T06:26:53;13.20;99.90
24162;DHT22;12318;51.262;7.066;2022-10-16T06:29:19;13.30;99.90
24162;DHT22;12318;51.262;7.066;2022-10-16T06:31:44;13.30;99.90
24162;DHT22;12318;51.262;7.066;2022-10-16T06:34:10;13.40;99.90
24162;DHT22;12318;51.262;7.066;2022-10-16T06:36:37;13.50;99.90
24162;DHT22;12318;51.262;7.066;2022-10-16T06:39:03;13.50;99.90
24162;DHT22;12318;51.262;7.066;2022-10-16T06:41:30;13.60;99.90
24162;DHT22;12318;51.262;7.066;2022-10-16T06:43:56;13.60;99.90
24162;DHT22;12318;51.262;7.066;2022-10-16T06:46:22;13.50;99.90
24162;DHT22;12318;51.262;7.066;2022-10-16T06:48:49;13.60;99.90
24162;DHT22;12318;51.262;7.066;2022-10-16T06:51:15;13.60;99.90
24162;DHT22;12318;51.262;7.066;2022-10-16T06:53:42;13.60;99.90
24162;DHT22;12318;51.262;7.066;2022-10-16T06:56:09;13.60;99.90
24162;DHT22;12318;51.262;7.066;2022-10-16T06:58:37;13.70;99.90
24162;DHT22;12318;51.262;7.066;2022-10-16T07:01:03;13.70;99.90
24162;DHT22;12318;51.262;7.066;2022-10-16T07:03:29;13.70;99.90
24162;DHT22;12318;51.262;7.066;2022-10-16T07:05:55;13.80;99.90
24162;DHT22;12318;51.262;7.066;2022-10-16T07:08:21;13.90;99.90
24162;DHT22;12318;51.262;7.066;2022-10-16T07:10:47;14.00;99.90
24162;DHT22;12318;51.262;7.066;2022-10-16T07:13:12;14.10;99.90
24162;DHT22;12318;51.262;7.066;2022-10-16T07:15:39;14.10;99.90
24162;DHT22;12318;51.262;7.066;2022-10-16T07:18:05;14.00;99.90
24162;DHT22;12318;51.262;7.066;2022-10-16T07:20:31;14.00;99.90
24162;DHT22;12318;51.262;7.066;2022-10-16T07:22:57;14.00;99.90
24162;DHT22;12318;51.262;7.066;2022-10-16T07:25:22;14.00;99.90
24162;DHT22;12318;51.262;7.066;2022-10-16T07:27:48;14.00;99.90
24162;DHT22;12318;51.262;7.066;2022-10-16T07:30:14;13.90;99.90
24162;DHT22;12318;51.262;7.066;2022-10-16T07:32:39;13.90;99.90
24162;DHT22;12318;51.262;7.066;2022-10-16T07:35:05;14.00;99.90
24162;DHT22;12318;51.262;7.066;2022-10-16T07:37:31;14.00;99.90
24162;DHT22;12318;51.262;7.066;2022-10-16T07:39:56;14.10;99.90
24162;DHT22;12318;51.262;7.066;2022-10-16T07:42:22;14.10;99.90
24162;DHT22;12318;51.262;7.066;2022-10-16T07:44:48;14.10;99.90
24162;DHT22;12318;51.262;7.066;2022-10-16T07:47:13;14.00;99.90
24162;DHT22;12318;51.262;7.066;2022-10-16T07:49:39;14.00;99.90
24162;DHT22;12318;51.262;7.066;2022-10-16T07:52:05;14.00;99.90
24162;DHT22;12318;51.262;7.066;2022-10-16T07:54:30;14.00;99.90
24162;DHT22;12318;51.262;7.066;2022-10-16T07:56:56;14.00;99.90
24162;DHT22;12318;51.262;7.066;2022-10-16T07:59:21;14.10;99.90
24162;DHT22;12318;51.262;7.066;2022-10-16T08:01:48;14.20;99.90
24162;DHT22;12318;51.262;7.066;2022-10-16T08:04:14;14.40;99.90
24162;DHT22;12318;51.262;7.066;2022-10-16T08:06:39;14.50;99.90
24162;DHT22;12318;51.262;7.066;2022-10-16T08:09:08;14.60;99.90
24162;DHT22;12318;51.262;7.066;2022-10-16T08:11:34;14.60;99.90
24162;DHT22;12318;51.262;7.066;2022-10-16T08:14:00;14.70;99.90
24162;DHT22;12318;51.262;7.066;2022-10-16T08:16:25;14.90;99.90
24162;DHT22;12318;51.262;7.066;2022-10-16T08:18:51;15.00;99.90
24162;DHT22;12318;51.262;7.066;2022-10-16T08:21:18;15.00;99.90
24162;DHT22;12318;51.262;7.066;2022-10-16T08:23:44;15.10;99.90
24162;DHT22;12318;51.262;7.066;2022-10-16T08:26:10;15.20;99.90
24162;DHT22;12318;51.262;7.066;2022-10-16T08:28:36;15.30;99.90
24162;DHT22;12318;51.262;7.066;2022-10-16T08:31:09;15.30;99.90
24162;DHT22;12318;51.262;7.066;2022-10-16T08:33:35;15.40;99.90
24162;DHT22;12318;51.262;7.066;2022-10-16T08:36:02;15.50;99.90
24162;DHT22;12318;51.262;7.066;2022-10-16T08:38:27;15.50;99.90
24162;DHT22;12318;51.262;7.066;2022-10-16T08:40:53;15.50;99.90
24162;DHT22;12318;51.262;7.066;2022-10-16T08:43:25;15.60;99.90
24162;DHT22;12318;51.262;7.066;2022-10-16T08:51:07;15.80;99.90
24162;DHT22;12318;51.262;7.066;2022-10-16T08:53:36;16.00;99.90
24162;DHT22;12318;51.262;7.066;2022-10-16T08:56:03;16.00;99.90
24162;DHT22;12318;51.262;7.066;2022-10-16T08:58:29;16.10;99.90
24162;DHT22;12318;51.262;7.066;2022-10-16T09:00:56;16.20;99.90
24162;DHT22;12318;51.262;7.066;2022-10-16T09:16:36;16.40;99.90
24162;DHT22;12318;51.262;7.066;2022-10-16T09:19:09;16.40;99.90
24162;DHT22;12318;51.262;7.066;2022-10-16T09:21:38;16.50;99.90
24162;DHT22;12318;51.262;7.066;2022-10-16T09:24:09;16.50;99.90
24162;DHT22;12318;51.262;7.066;2022-10-16T09:26:36;16.60;99.90
24162;DHT22;12318;51.262;7.066;2022-10-16T09:29:02;16.60;99.90
24162;DHT22;12318;51.262;7.066;2022-10-16T09:31:28;16.70;99.90
24162;DHT22;12318;51.262;7.066;2022-10-16T09:33:55;16.70;99.90
24162;DHT22;12318;51.262;7.066;2022-10-16T09:36:22;16.80;99.90
24162;DHT22;12318;51.262;7.066;2022-10-16T09:38:49;16.70;99.90
24162;DHT22;12318;51.262;7.066;2022-10-16T09:41:19;16.70;99.90
24162;DHT22;12318;51.262;7.066;2022-10-16T09:46:30;16.80;99.90
24162;DHT22;12318;51.262;7.066;2022-10-16T09:49:00;16.80;99.90
24162;DHT22;12318;51.262;7.066;2022-10-16T09:53:55;17.00;99.90
24162;DHT22;12318;51.262;7.066;2022-10-16T09:56:23;17.10;99.90
24162;DHT22;12318;51.262;7.066;2022-10-16T09:58:50;17.20;99.90
24162;DHT22;12318;51.262;7.066;2022-10-16T10:01:16;17.30;99.90
24162;DHT22;12318;51.262;7.066;2022-10-16T10:03:42;17.20;99.90
24162;DHT22;12318;51.262;7.066;2022-10-16T10:06:22;17.20;99.90
24162;DHT22;12318;51.262;7.066;2022-10-16T10:08:55;17.40;99.90
24162;DHT22;12318;51.262;7.066;2022-10-16T10:11:37;17.50;99.90
24162;DHT22;12318;51.262;7.066;2022-10-16T10:14:04;17.40;99.90
24162;DHT22;12318;51.262;7.066;2022-10-16T10:16:30;17.60;99.90
24162;DHT22;12318;51.262;7.066;2022-10-16T10:19:00;17.70;99.90
24162;DHT22;12318;51.262;7.066;2022-10-16T10:21:25;17.70;99.90
24162;DHT22;12318;51.262;7.066;2022-10-16T10:23:57;17.70;99.90
24162;DHT22;12318;51.262;7.066;2022-10-16T10:26:24;17.60;99.90
24162;DHT22;12318;51.262;7.066;2022-10-16T10:31:34;17.50;99.90
24162;DHT22;12318;51.262;7.066;2022-10-16T10:36:39;17.50;99.90
24162;DHT22;12318;51.262;7.066;2022-10-16T10:39:07;17.40;99.90
24162;DHT22;12318;51.262;7.066;2022-10-16T10:46:32;17.00;99.90
24162;DHT22;12318;51.262;7.066;2022-10-16T10:49:03;17.20;99.90
24162;DHT22;12318;51.262;7.066;2022-10-16T10:56:42;17.20;99.90
24162;DHT22;12318;51.262;7.066;2022-10-16T10:59:25;17.30;99.90
24162;DHT22;12318;51.262;7.066;2022-10-16T11:01:58;17.40;99.90
24162;DHT22;12318;51.262;7.066;2022-10-16T11:08:02;17.50;99.90
24162;DHT22;12318;51.262;7.066;2022-10-16T11:10:02;17.50;99.90
24162;DHT22;12318;51.262;7.066;2022-10-16T11:12:33;17.30;99.90
24162;DHT22;12318;51.262;7.066;2022-10-16T11:17:47;17.40;99.90
24162;DHT22;12318;51.262;7.066;2022-10-16T11:20:39;17.50;99.90
24162;DHT22;12318;51.262;7.066;2022-10-16T11:23:28;17.50;99.90
24162;DHT22;12318;51.262;7.066;2022-10-16T11:26:01;17.60;99.90
24162;DHT22;12318;51.262;7.066;2022-10-16T11:28:39;17.70;99.90
24162;DHT22;12318;51.262;7.066;2022-10-16T11:31:08;17.80;99.90
24162;DHT22;12318;51.262;7.066;2022-10-16T11:34:21;17.80;99.90
24162;DHT22;12318;51.262;7.066;2022-10-16T11:46:34;17.80;99.90
24162;DHT22;12318;51.262;7.066;2022-10-16T11:49:12;17.80;99.90
24162;DHT22;12318;51.262;7.066;2022-10-16T11:51:40;17.80;99.90
24162;DHT22;12318;51.262;7.066;2022-10-16T11:56:54;17.90;99.90
24162;DHT22;12318;51.262;7.066;2022-10-16T12:01:48;18.10;99.90
24162;DHT22;12318;51.262;7.066;2022-10-16T12:06:50;17.80;99.90
24162;DHT22;12318;51.262;7.066;2022-10-16T12:09:22;17.80;99.90
24162;DHT22;12318;51.262;7.066;2022-10-16T12:11:50;17.90;99.90
24162;DHT22;12318;51.262;7.066;2022-10-16T12:16:51;18.00;99.90
24162;DHT22;12318;51.262;7.066;2022-10-16T12:19:19;18.10;99.90
24162;DHT22;12318;51.262;7.066;2022-10-16T12:21:45;18.10;99.90
24162;DHT22;12318;51.262;7.066;2022-10-16T12:24:20;18.10;99.90
24162;DHT22;12318;51.262;7.066;2022-10-16T12:26:46;18.20;99.90
24162;DHT22;12318;51.262;7.066;2022-10-16T12:31:45;18.30;99.90
24162;DHT22;12318;51.262;7.066;2022-10-16T12:34:22;18.30;99.90
24162;DHT22;12318;51.262;7.066;2022-10-16T12:36:49;18.30;99.90
24162;DHT22;12318;51.262;7.066;2022-10-16T12:39:20;18.20;99.90
24162;DHT22;12318;51.262;7.066;2022-10-16T12:41:46;18.20;99.90
24162;DHT22;12318;51.262;7.066;2022-10-16T12:44:24;18.30;99.90
24162;DHT22;12318;51.262;7.066;2022-10-16T12:46:51;18.20;99.90
24162;DHT22;12318;51.262;7.066;2022-10-16T12:49:22;18.30;99.90
24162;DHT22;12318;51.262;7.066;2022-10-16T12:51:49;18.40;99.90
24162;DHT22;12318;51.262;7.066;2022-10-16T12:54:23;18.40;99.90
24162;DHT22;12318;51.262;7.066;2022-10-16T12:56:58;18.40;99.90
24162;DHT22;12318;51.262;7.066;2022-10-16T13:02:14;18.40;99.90
24162;DHT22;12318;51.262;7.066;2022-10-16T13:04:52;18.30;99.90
24162;DHT22;12318;51.262;7.066;2022-10-16T13:12:27;18.20;99.90
24162;DHT22;12318;51.262;7.066;2022-10-16T13:25:26;18.30;99.90
24162;DHT22;12318;51.262;7.066;2022-10-16T13:27:59;18.20;99.90
24162;DHT22;12318;51.262;7.066;2022-10-16T13:30:29;18.30;99.90
24162;DHT22;12318;51.262;7.066;2022-10-16T13:35:28;18.50;99.90
24162;DHT22;12318;51.262;7.066;2022-10-16T13:40:52;18.40;99.90
24162;DHT22;12318;51.262;7.066;2022-10-16T13:43:19;18.30;99.90
24162;DHT22;12318;51.262;7.066;2022-10-16T13:46:20;18.30;99.90
24162;DHT22;12318;51.262;7.066;2022-10-16T13:48:38;18.40;99.90
24162;DHT22;12318;51.262;7.066;2022-10-16T13:51:14;18.50;99.90
24162;DHT22;12318;51.262;7.066;2022-10-16T13:53:40;18.40;99.90
24162;DHT22;12318;51.262;7.066;2022-10-16T13:56:16;18.60;99.90
24162;DHT22;12318;51.262;7.066;2022-10-16T13:58:45;18.70;99.90
24162;DHT22;12318;51.262;7.066;2022-10-16T14:01:25;18.70;99.90
24162;DHT22;12318;51.262;7.066;2022-10-16T14:03:59;18.50;99.90
24162;DHT22;12318;51.262;7.066;2022-10-16T14:06:26;18.50;99.90
24162;DHT22;12318;51.262;7.066;2022-10-16T14:08:56;18.50;99.90
24162;DHT22;12318;51.262;7.066;2022-10-16T14:11:24;18.50;99.90
24162;DHT22;12318;51.262;7.066;2022-10-16T14:13:50;18.40;99.90
24162;DHT22;12318;51.262;7.066;2022-10-16T14:16:17;18.50;99.90
24162;DHT22;12318;51.262;7.066;2022-10-16T14:18:45;18.60;99.90
24162;DHT22;12318;51.262;7.066;2022-10-16T14:21:18;18.60;99.90
24162;DHT22;12318;51.262;7.066;2022-10-16T14:23:45;18.70;99.90
24162;DHT22;12318;51.262;7.066;2022-10-16T14:28:38;18.60;99.90
24162;DHT22;12318;51.262;7.066;2022-10-16T14:33:45;18.60;99.90
24162;DHT22;12318;51.262;7.066;2022-10-16T14:38:36;18.50;99.90
24162;DHT22;12318;51.262;7.066;2022-10-16T14:41:03;18.40;99.90
24162;DHT22;12318;51.262;7.066;2022-10-16T14:43:33;18.40;99.90
24162;DHT22;12318;51.262;7.066;2022-10-16T14:45:59;18.50;99.90
24162;DHT22;12318;51.262;7.066;2022-10-16T14:48:27;18.60;99.90
24162;DHT22;12318;51.262;7.066;2022-10-16T14:50:53;18.60;99.90
24162;DHT22;12318;51.262;7.066;2022-10-16T14:53:19;18.80;99.90
24162;DHT22;12318;51.262;7.066;2022-10-16T14:55:44;18.80;99.90
24162;DHT22;12318;51.262;7.066;2022-10-16T14:58:21;18.80;99.90
24162;DHT22;12318;51.262;7.066;2022-10-16T15:00:47;18.50;99.90
24162;DHT22;12318;51.262;7.066;2022-10-16T15:03:16;18.50;99.90
24162;DHT22;12318;51.262;7.066;2022-10-16T15:05:43;18.70;99.90
24162;DHT22;12318;51.262;7.066;2022-10-16T15:08:09;18.70;99.90
24162;DHT22;12318;51.262;7.066;2022-10-16T15:10:38;18.50;99.90
24162;DHT22;12318;51.262;7.066;2022-10-16T15:13:03;18.30;99.90
24162;DHT22;12318;51.262;7.066;2022-10-16T15:15:36;18.20;99.90
24162;DHT22;12318;51.262;7.066;2022-10-16T15:18:03;18.20;99.90
24162;DHT22;12318;51.262;7.066;2022-10-16T15:20:32;18.30;99.90
24162;DHT22;12318;51.262;7.066;2022-10-16T15:23:03;18.40;99.90
24162;DHT22;12318;51.262;7.066;2022-10-16T15:25:35;18.40;99.90
24162;DHT22;12318;51.262;7.066;2022-10-16T15:28:02;18.20;99.90
24162;DHT22;12318;51.262;7.066;2022-10-16T15:30:28;18.20;99.90
24162;DHT22;12318;51.262;7.066;2022-10-16T15:32:57;17.90;99.90
24162;DHT22;12318;51.262;7.066;2022-10-16T15:35:22;17.80;99.90
24162;DHT22;12318;51.262;7.066;2022-10-16T15:37:50;17.80;99.90
24162;DHT22;12318;51.262;7.066;2022-10-16T15:40:17;17.80;99.90
24162;DHT22;12318;51.262;7.066;2022-10-16T15:42:43;17.70;99.90
24162;DHT22;12318;51.262;7.066;2022-10-16T15:45:09;17.60;99.90
24162;DHT22;12318;51.262;7.066;2022-10-16T15:47:36;17.40;99.90
24162;DHT22;12318;51.262;7.066;2022-10-16T15:50:02;17.40;99.90
24162;DHT22;12318;51.262;7.066;2022-10-16T15:52:28;17.30;99.90
24162;DHT22;12318;51.262;7.066;2022-10-16T15:54:54;17.20;99.90
24162;DHT22;12318;51.262;7.066;2022-10-16T15:57:20;17.20;99.90
24162;DHT22;12318;51.262;7.066;2022-10-16T15:59:46;17.10;99.90
24162;DHT22;12318;51.262;7.066;2022-10-16T16:02:11;17.10;99.90
24162;DHT22;12318;51.262;7.066;2022-10-16T16:04:37;17.10;99.90
24162;DHT22;12318;51.262;7.066;2022-10-16T16:07:03;17.00;99.90
24162;DHT22;12318;51.262;7.066;2022-10-16T16:09:29;17.00;99.90
24162;DHT22;12318;51.262;7.066;2022-10-16T16:11:54;17.00;99.90
24162;DHT22;12318;51.262;7.066;2022-10-16T16:14:20;17.00;99.90
24162;DHT22;12318;51.262;7.066;2022-10-16T16:16:46;16.90;99.90
24162;DHT22;12318;51.262;7.066;2022-10-16T16:19:12;16.90;99.90
24162;DHT22;12318;51.262;7.066;2022-10-16T16:21:37;16.90;99.90
24162;DHT22;12318;51.262;7.066;2022-10-16T16:24:03;17.00;99.90
24162;DHT22;12318;51.262;7.066;2022-10-16T16:26:33;16.90;99.90
24162;DHT22;12318;51.262;7.066;2022-10-16T16:29:02;16.90;99.90
24162;DHT22;12318;51.262;7.066;2022-10-16T16:31:31;16.90;99.90
24162;DHT22;12318;51.262;7.066;2022-10-16T16:33:56;16.90;99.90
24162;DHT22;12318;51.262;7.066;2022-10-16T16:36:23;16.90;99.90
24162;DHT22;12318;51.262;7.066;2022-10-16T16:38:52;16.80;99.90
24162;DHT22;12318;51.262;7.066;2022-10-16T16:41:21;16.80;99.90
24162;DHT22;12318;51.262;7.066;2022-10-16T16:43:47;16.80;99.90
24162;DHT22;12318;51.262;7.066;2022-10-16T16:46:16;16.80;99.90
24162;DHT22;12318;51.262;7.066;2022-10-16T16:48:42;16.70;99.90
24162;DHT22;12318;51.262;7.066;2022-10-16T16:51:09;16.70;99.90
24162;DHT22;12318;51.262;7.066;2022-10-16T16:53:36;16.70;99.90
24162;DHT22;12318;51.262;7.066;2022-10-16T16:56:03;16.70;99.90
24162;DHT22;12318;51.262;7.066;2022-10-16T16:58:36;16.70;99.90
24162;DHT22;12318;51.262;7.066;2022-10-16T17:01:02;16.70;99.90
24162;DHT22;12318;51.262;7.066;2022-10-16T17:03:28;16.70;99.90
24162;DHT22;12318;51.262;7.066;2022-10-16T17:05:58;16.70;99.90
24162;DHT22;12318;51.262;7.066;2022-10-16T17:08:26;16.70;99.90
24162;DHT22;12318;51.262;7.066;2022-10-16T17:11:00;16.80;99.90
24162;DHT22;12318;51.262;7.066;2022-10-16T17:13:30;16.80;99.90
24162;DHT22;12318;51.262;7.066;2022-10-16T17:16:06;16.80;99.90
24162;DHT22;12318;51.262;7.066;2022-10-16T17:18:32;16.80;99.90
24162;DHT22;12318;51.262;7.066;2022-10-16T17:20:59;16.80;99.90
24162;DHT22;12318;51.262;7.066;2022-10-16T17:23:30;16.70;99.90
24162;DHT22;12318;51.262;7.066;2022-10-16T17:25:56;16.80;99.90
24162;DHT22;12318;51.262;7.066;2022-10-16T17:28:22;16.70;99.90
24162;DHT22;12318;51.262;7.066;2022-10-16T17:30:47;16.70;99.90
24162;DHT22;12318;51.262;7.066;2022-10-16T17:33:13;16.70;99.90